Time;durP1;ratioP1;P1;durP2;ratioP2;P2;SDS_P1;SDS_P2;PMS_P1;PMS_P2;Temp;Humidity;BMP_temperature;BMP_pressure;BME280_temperature;BME280_humidity;BME280_pressure;Samples;Min_cycle;Max_cycle;Signal;HPM_P1;HPM_P2
2021/06/19 00:00:17;;;;;;;;;;;;;;;31.12;44.95;101217.25;5040226;28;19955;-81
2021/06/19 00:02:42;;;;;;;;;;;;;;;31.18;44.18;101230.47;5024584;28;19921;-87
2021/06/19 00:05:08;;;;;;;;;;;;;;;31.37;43.62;101229.75;5024074;28;20001;-85
2021/06/19 00:07:33;;;;;;;;;;;;;;;31.53;43.18;101231.41;5022591;28;19924;-87
2021/06/19 00:09:59;;;;;;;;;;;;;;;30.98;44.39;101233.00;5022824;28;19918;-84
2021/06/19 00:12:24;;;;;;;;;;;;;;;31.06;43.82;101239.34;5022499;28;19940;-79
2021/06/19 00:14:49;;;;;;;;;;;;;;;29.97;47.21;101228.03;5005156;28;19921;-85
2021/06/19 00:17:14;;;;;;;;;;;;;;;29.60;47.80;101232.59;5022149;28;19917;-84
2021/06/19 00:19:40;;;;;;;;;;;;;;;29.78;46.94;101223.88;5020961;28;19944;-85
2021/06/19 00:22:05;;;;;;;;;;;;;;;28.95;49.13;101243.19;5021847;28;19921;-83
2021/06/19 00:24:35;;;;;;;;;;;;;;;28.63;50.53;101236.78;5021397;28;19917;-86
2021/06/19 00:27:00;;;;;;;;;;;;;;;29.24;48.40;101236.91;5019469;28;19929;-85
2021/06/19 00:29:25;;;;;;;;;;;;;;;29.72;46.97;101231.06;5035008;28;19917;-85
2021/06/19 00:31:50;;;;;;;;;;;;;;;28.93;49.25;101232.25;5035332;28;19917;-86
2021/06/19 00:34:15;;;;;;;;;;;;;;;30.33;45.24;101233.72;5018883;28;19983;-86
2021/06/19 00:36:41;;;;;;;;;;;;;;;30.08;45.87;101235.09;5018649;28;19922;-85
2021/06/19 00:39:06;;;;;;;;;;;;;;;29.75;46.96;101229.84;5020073;28;20225;-85
2021/06/19 00:41:34;;;;;;;;;;;;;;;28.80;50.22;101237.56;5020577;28;19924;-83
2021/06/19 00:43:59;;;;;;;;;;;;;;;28.78;50.38;101236.88;5020231;28;19929;-80
2021/06/19 00:46:24;;;;;;;;;;;;;;;27.85;53.82;101244.84;5018998;28;19918;-87
2021/06/19 00:48:50;;;;;;;;;;;;;;;28.45;51.71;101234.25;5022013;28;20282;-87
2021/06/19 00:51:15;;;;;;;;;;;;;;;27.79;54.29;101237.22;5019695;28;19917;-86
2021/06/19 00:53:40;;;;;;;;;;;;;;;29.12;49.31;101246.72;5035956;28;20295;-82
2021/06/19 00:56:06;;;;;;;;;;;;;;;28.56;51.29;101244.97;5020992;28;20294;-83
2021/06/19 00:58:32;;;;;;;;;;;;;;;27.79;53.69;101244.69;5021492;28;19917;-80
2021/06/19 01:00:57;;;;;;;;;;;;;;;27.26;55.24;101252.53;5022332;28;20442;-84
2021/06/19 01:03:22;;;;;;;;;;;;;;;27.88;53.84;101258.38;5020958;28;20024;-86
2021/06/19 01:05:49;;;;;;;;;;;;;;;26.14;60.19;101270.19;5020197;28;19985;-86
2021/06/19 01:08:14;;;;;;;;;;;;;;;27.22;57.57;101260.31;5021030;28;20306;-85
2021/06/19 01:10:39;;;;;;;;;;;;;;;27.53;56.21;101265.22;5020270;28;20021;-80
2021/06/19 01:13:06;;;;;;;;;;;;;;;27.54;55.96;101270.59;5019494;28;20325;-86
2021/06/19 01:15:31;;;;;;;;;;;;;;;26.77;57.31;101278.28;5020314;28;19918;-82
2021/06/19 01:17:56;;;;;;;;;;;;;;;26.13;59.43;101284.22;5020283;28;19924;-84
2021/06/19 01:20:22;;;;;;;;;;;;;;;25.59;61.50;101279.69;5037640;28;19913;-84
2021/06/19 01:22:49;;;;;;;;;;;;;;;26.52;58.52;101267.06;5020270;28;19925;-87
2021/06/19 01:25:19;;;;;;;;;;;;;;;25.43;61.85;101261.03;5019833;28;20420;-83
2021/06/19 01:27:44;;;;;;;;;;;;;;;25.68;60.69;101264.00;5021096;28;19917;-84
2021/06/19 01:30:11;;;;;;;;;;;;;;;26.10;59.52;101268.78;5020553;28;20365;-80
2021/06/19 01:32:37;;;;;;;;;;;;;;;25.37;62.13;101272.75;5020194;28;20020;-83
2021/06/19 01:35:03;;;;;;;;;;;;;;;25.44;61.82;101273.00;5019906;28;19980;-84
2021/06/19 01:37:30;;;;;;;;;;;;;;;25.85;59.77;101276.06;5020465;28;20314;-84
2021/06/19 01:40:03;;;;;;;;;;;;;;;25.19;61.98;101277.41;5019547;28;19917;-84
2021/06/19 01:42:28;;;;;;;;;;;;;;;26.38;57.92;101279.69;5020833;28;19917;-84
2021/06/19 01:44:53;;;;;;;;;;;;;;;25.73;59.25;101272.69;5020286;28;19924;-86
2021/06/19 01:47:19;;;;;;;;;;;;;;;26.17;57.84;101282.88;5021219;28;19924;-80
2021/06/19 01:49:44;;;;;;;;;;;;;;;26.16;58.76;101286.66;5020229;28;19917;-79
2021/06/19 01:52:09;;;;;;;;;;;;;;;26.39;56.77;101284.22;5021152;28;19925;-86
2021/06/19 01:54:40;;;;;;;;;;;;;;;25.39;59.36;101280.91;5021029;28;19917;-87
2021/06/19 01:57:06;;;;;;;;;;;;;;;25.43;60.13;101290.63;5020367;28;19993;-85
2021/06/19 01:59:32;;;;;;;;;;;;;;;25.73;59.21;101289.31;5021921;28;19964;-85
2021/06/19 02:01:59;;;;;;;;;;;;;;;25.20;59.85;101292.97;5020605;28;19999;-87
2021/06/19 02:04:25;;;;;;;;;;;;;;;25.76;58.43;101297.31;5020431;28;20012;-86
2021/06/19 02:06:50;;;;;;;;;;;;;;;26.13;57.27;101287.00;5019991;28;19957;-82
2021/06/19 02:09:15;;;;;;;;;;;;;;;24.74;61.44;101293.91;5020809;28;19913;-86
2021/06/19 02:11:40;;;;;;;;;;;;;;;25.94;57.76;101293.63;5036393;28;19963;-85
2021/06/19 02:14:06;;;;;;;;;;;;;;;25.27;59.35;101289.44;5020320;28;20004;-81
2021/06/19 02:16:31;;;;;;;;;;;;;;;25.69;58.67;101300.88;5018163;28;19917;-84
2021/06/19 02:18:56;;;;;;;;;;;;;;;25.75;58.77;101294.69;5020419;28;19927;-82
2021/06/19 02:21:22;;;;;;;;;;;;;;;24.90;61.57;101306.16;5020950;28;19953;-84
2021/06/19 02:23:47;;;;;;;;;;;;;;;25.50;60.07;101308.34;5018787;28;19925;-81
2021/06/19 02:26:12;;;;;;;;;;;;;;;25.47;60.15;101303.13;5020588;28;19924;-83
2021/06/19 02:28:38;;;;;;;;;;;;;;;26.16;57.39;101311.63;5037093;28;19917;-85
2021/06/19 02:31:03;;;;;;;;;;;;;;;25.96;57.88;101308.19;5020070;28;19917;-81
2021/06/19 02:33:28;;;;;;;;;;;;;;;26.33;56.16;101304.25;5035693;28;19960;-86
2021/06/19 02:35:54;;;;;;;;;;;;;;;25.49;60.23;101308.53;5035912;28;19937;-85
2021/06/19 02:38:19;;;;;;;;;;;;;;;25.78;58.15;101316.53;5021225;28;20326;-78
2021/06/19 02:40:46;;;;;;;;;;;;;;;26.20;56.76;101317.72;5018207;28;20008;-84
2021/06/19 02:43:11;;;;;;;;;;;;;;;26.90;53.95;101320.31;5020068;28;20351;-83
2021/06/19 02:45:37;;;;;;;;;;;;;;;26.41;56.14;101322.88;5035087;28;19928;-84
2021/06/19 02:48:02;;;;;;;;;;;;;;;25.65;57.40;101323.38;5018456;28;20385;-85
2021/06/19 02:50:29;;;;;;;;;;;;;;;25.36;58.16;101328.28;5019447;28;20008;-85
2021/06/19 02:52:55;;;;;;;;;;;;;;;24.92;59.44;101317.94;5019590;28;20021;-84
2021/06/19 02:55:23;;;;;;;;;;;;;;;24.93;59.96;101331.63;5018805;28;19921;-78
2021/06/19 02:57:48;;;;;;;;;;;;;;;24.84;60.69;101328.94;5018618;28;19925;-85
2021/06/19 03:00:14;;;;;;;;;;;;;;;25.40;58.35;101327.81;5020865;28;19917;-86
2021/06/19 03:02:40;;;;;;;;;;;;;;;25.28;58.36;101326.28;5018987;28;19968;-85
2021/06/19 03:05:06;;;;;;;;;;;;;;;25.20;58.20;101335.38;5019379;28;19933;-83
2021/06/19 03:07:31;;;;;;;;;;;;;;;24.69;59.96;101326.66;5034882;28;19941;-87
2021/06/19 03:09:57;;;;;;;;;;;;;;;25.51;57.56;101320.31;5018950;28;19922;-88
2021/06/19 03:12:22;;;;;;;;;;;;;;;25.51;57.08;101331.38;5035125;28;19925;-81
2021/06/19 03:14:48;;;;;;;;;;;;;;;26.10;54.64;101327.00;5035881;28;20399;-87
2021/06/19 03:17:13;;;;;;;;;;;;;;;26.19;54.58;101336.25;5019889;28;20367;-85
2021/06/19 03:19:39;;;;;;;;;;;;;;;26.24;54.57;101338.53;5020410;28;19925;-90
2021/06/19 03:22:04;;;;;;;;;;;;;;;25.94;55.88;101343.53;5020374;28;19933;-83
2021/06/19 03:24:30;;;;;;;;;;;;;;;25.51;56.98;101336.94;5003470;28;19921;-82
2021/06/19 03:26:55;;;;;;;;;;;;;;;24.97;58.77;101336.84;5021660;28;20353;-86
2021/06/19 03:29:21;;;;;;;;;;;;;;;25.63;57.26;101338.41;5005135;28;20287;-86
2021/06/19 03:31:46;;;;;;;;;;;;;;;26.08;54.60;101328.22;5021874;28;19917;-86
2021/06/19 03:34:11;;;;;;;;;;;;;;;26.36;53.42;101340.03;5022529;28;19921;-88
2021/06/19 03:36:37;;;;;;;;;;;;;;;25.71;55.85;101332.97;5022583;28;20505;-83
2021/06/19 03:39:02;;;;;;;;;;;;;;;25.46;56.16;101338.25;5022365;28;19917;-80
2021/06/19 03:41:28;;;;;;;;;;;;;;;25.11;57.88;101342.72;5021218;28;19917;-84
2021/06/19 03:43:53;;;;;;;;;;;;;;;25.30;55.96;101338.09;5021368;28;19921;-80
2021/06/19 03:46:18;;;;;;;;;;;;;;;24.57;59.09;101344.47;5022434;28;19924;-85
2021/06/19 03:48:44;;;;;;;;;;;;;;;24.08;61.23;101341.91;5020652;28;20521;-83
2021/06/19 03:51:09;;;;;;;;;;;;;;;24.47;59.74;101346.41;5021219;28;19928;-85
2021/06/19 03:53:35;;;;;;;;;;;;;;;24.48;59.46;101345.38;5037743;28;19917;-85
2021/06/19 03:56:00;;;;;;;;;;;;;;;26.16;54.08;101345.78;5021866;28;19921;-86
2021/06/19 03:58:25;;;;;;;;;;;;;;;24.91;57.46;101354.94;5038065;28;19940;-82
2021/06/19 04:00:50;;;;;;;;;;;;;;;25.44;56.02;101359.72;5022823;28;19917;-86
2021/06/19 04:03:16;;;;;;;;;;;;;;;25.13;56.83;101348.13;5023213;28;19925;-80
2021/06/19 04:05:41;;;;;;;;;;;;;;;24.94;56.98;101352.75;5023338;28;20020;-87
2021/06/19 04:08:07;;;;;;;;;;;;;;;25.97;54.31;101362.59;5022550;28;19921;-85
2021/06/19 04:10:32;;;;;;;;;;;;;;;24.58;59.29;101363.72;5021410;28;19918;-86
2021/06/19 04:12:57;;;;;;;;;;;;;;;24.77;58.13;101362.75;5023047;28;19918;-82
2021/06/19 04:15:22;;;;;;;;;;;;;;;25.10;56.93;101368.66;5020563;28;19913;-85
2021/06/19 04:17:48;;;;;;;;;;;;;;;25.45;56.39;101371.66;5022593;28;19953;-87
2021/06/19 04:20:14;;;;;;;;;;;;;;;25.17;56.85;101379.13;5021882;28;19922;-83
2021/06/19 04:22:41;;;;;;;;;;;;;;;24.83;58.20;101379.75;5022283;28;19965;-85
2021/06/19 04:25:07;;;;;;;;;;;;;;;25.58;56.92;101374.06;5021656;28;19953;-88
2021/06/19 04:27:40;;;;;;;;;;;;;;;25.42;56.96;101385.84;5021205;28;19913;-79
2021/06/19 04:30:06;;;;;;;;;;;;;;;24.85;58.20;101381.38;5022898;28;19917;-83
2021/06/19 04:32:31;;;;;;;;;;;;;;;25.48;57.04;101376.88;5023243;28;19917;-81
2021/06/19 04:34:57;;;;;;;;;;;;;;;24.69;60.02;101383.91;5022653;28;20068;-87
2021/06/19 04:37:26;;;;;;;;;;;;;;;24.88;58.80;101385.69;5019490;28;19917;-84
2021/06/19 04:40:02;;;;;;;;;;;;;;;25.20;58.26;101389.88;5018770;28;19913;-84
2021/06/19 04:42:34;;;;;;;;;;;;;;;25.54;56.69;101380.94;5022400;28;19918;-83
2021/06/19 04:45:02;;;;;;;;;;;;;;;26.68;52.90;101397.63;5036860;28;19960;-84
2021/06/19 04:47:27;;;;;;;;;;;;;;;25.76;55.59;101393.44;5019192;28;19917;-84
2021/06/19 04:49:53;;;;;;;;;;;;;;;25.25;57.54;101405.00;5019427;28;20263;-83
2021/06/19 04:52:19;;;;;;;;;;;;;;;25.95;55.49;101404.34;5020260;28;20298;-80
2021/06/19 04:54:45;;;;;;;;;;;;;;;25.72;56.71;101406.72;5019479;28;19928;-86
2021/06/19 04:57:10;;;;;;;;;;;;;;;25.35;58.04;101406.88;5035687;28;19921;-84
2021/06/19 04:59:35;;;;;;;;;;;;;;;25.26;57.72;101411.44;5019290;28;19961;-81
2021/06/19 05:02:01;;;;;;;;;;;;;;;25.85;56.71;101411.00;5020200;28;20015;-82
2021/06/19 05:04:26;;;;;;;;;;;;;;;25.78;55.83;101419.94;5019413;28;20263;-83
2021/06/19 05:06:51;;;;;;;;;;;;;;;25.85;55.59;101419.31;5018981;28;19967;-83
2021/06/19 05:09:17;;;;;;;;;;;;;;;24.51;60.28;101428.06;5018878;28;19920;-85
2021/06/19 05:11:42;;;;;;;;;;;;;;;24.95;59.37;101431.97;5016933;28;19925;-82
2021/06/19 05:14:07;;;;;;;;;;;;;;;24.62;59.94;101432.56;5017424;28;19913;-84
2021/06/19 05:16:32;;;;;;;;;;;;;;;24.96;59.46;101441.19;5018899;28;19925;-84
2021/06/19 05:18:57;;;;;;;;;;;;;;;25.14;59.60;101441.22;5017518;28;19917;-84
2021/06/19 05:21:23;;;;;;;;;;;;;;;25.25;59.24;101445.69;5040678;28;19923;-83
2021/06/19 05:23:48;;;;;;;;;;;;;;;24.84;60.11;101440.50;5027626;28;20019;-84
2021/06/19 05:26:13;;;;;;;;;;;;;;;25.51;57.31;101444.97;5028664;28;19917;-85
2021/06/19 05:28:38;;;;;;;;;;;;;;;25.85;57.15;101445.16;5038840;28;19942;-82
2021/06/19 05:31:04;;;;;;;;;;;;;;;25.96;56.58;101446.81;5054802;28;19940;-84
2021/06/19 05:33:29;;;;;;;;;;;;;;;24.19;62.36;101452.28;5037732;28;19925;-84
2021/06/19 05:35:54;;;;;;;;;;;;;;;25.25;58.90;101449.31;5037843;28;19944;-84
2021/06/19 05:38:20;;;;;;;;;;;;;;;24.96;60.30;101457.78;5038457;28;19925;-84
2021/06/19 05:40:46;;;;;;;;;;;;;;;26.31;55.98;101454.22;5037802;28;19924;-84
2021/06/19 05:43:11;;;;;;;;;;;;;;;24.22;62.67;101459.41;5035985;28;19921;-81
2021/06/19 05:45:36;;;;;;;;;;;;;;;25.03;59.91;101453.38;5034958;28;19917;-82
2021/06/19 05:48:01;;;;;;;;;;;;;;;25.21;58.73;101464.53;5035103;28;19929;-82
2021/06/19 05:50:27;;;;;;;;;;;;;;;24.71;60.69;101460.19;5033846;28;19917;-82
2021/06/19 05:52:52;;;;;;;;;;;;;;;25.92;56.25;101464.78;5051324;28;19917;-81
2021/06/19 05:55:17;;;;;;;;;;;;;;;25.39;57.62;101461.78;5036769;28;19971;-80
2021/06/19 05:57:42;;;;;;;;;;;;;;;25.65;56.78;101470.25;5037026;28;19928;-81
2021/06/19 06:00:08;;;;;;;;;;;;;;;25.67;56.93;101466.44;5037146;28;19917;-81
2021/06/19 06:02:33;;;;;;;;;;;;;;;24.16;61.13;101471.06;5036109;28;20355;-80
2021/06/19 06:04:59;;;;;;;;;;;;;;;24.95;59.43;101472.63;5050463;28;20376;-81
2021/06/19 06:07:24;;;;;;;;;;;;;;;24.79;59.01;101475.19;5050582;28;20363;-81
2021/06/19 06:09:49;;;;;;;;;;;;;;;25.92;55.76;101473.09;5034927;28;20014;-82
2021/06/19 06:12:14;;;;;;;;;;;;;;;26.07;53.91;101468.75;5035032;28;20016;-81
2021/06/19 06:14:40;;;;;;;;;;;;;;;25.91;54.85;101482.47;5035557;28;19948;-81
2021/06/19 06:17:05;;;;;;;;;;;;;;;24.59;57.88;101481.66;5035859;28;19917;-82
2021/06/19 06:19:30;;;;;;;;;;;;;;;24.68;57.37;101487.31;5037375;28;19921;-80
2021/06/19 06:21:55;;;;;;;;;;;;;;;23.69;60.81;101494.72;5037417;28;20370;-82
2021/06/19 06:24:21;;;;;;;;;;;;;;;26.14;52.63;101493.97;5036166;28;19960;-81
2021/06/19 06:26:46;;;;;;;;;;;;;;;24.40;58.28;101501.88;5037005;28;20374;-83
2021/06/19 06:29:12;;;;;;;;;;;;;;;25.30;55.79;101493.19;5041160;28;19969;-82
2021/06/19 06:31:40;;;;;;;;;;;;;;;24.82;56.66;101491.47;5026130;28;19921;-79
2021/06/19 06:34:05;;;;;;;;;;;;;;;24.27;59.82;101505.97;5025682;28;20378;-80
2021/06/19 06:36:31;;;;;;;;;;;;;;;24.86;57.38;101492.94;5023162;28;19922;-81
2021/06/19 06:39:01;;;;;;;;;;;;;;;24.21;58.36;101504.66;5029335;28;19929;-82
2021/06/19 06:41:27;;;;;;;;;;;;;;;24.37;57.01;101499.41;5025972;28;19917;-82
2021/06/19 06:43:52;;;;;;;;;;;;;;;24.37;56.62;101493.88;5027020;28;19917;-81
2021/06/19 06:46:17;;;;;;;;;;;;;;;25.37;53.50;101497.09;5024452;28;19921;-80
2021/06/19 06:48:42;;;;;;;;;;;;;;;24.41;55.76;101500.88;5027117;28;19923;-83
2021/06/19 06:51:08;;;;;;;;;;;;;;;24.73;53.70;101499.66;5039877;28;19920;-79
2021/06/19 06:53:33;;;;;;;;;;;;;;;25.20;51.58;101492.34;5028654;28;19917;-81
2021/06/19 06:55:58;;;;;;;;;;;;;;;24.99;51.38;101493.47;5040826;28;20388;-83
2021/06/19 06:58:23;;;;;;;;;;;;;;;25.58;49.34;101498.75;5023904;28;19963;-81
2021/06/19 07:00:49;;;;;;;;;;;;;;;26.04;47.95;101493.16;5025152;28;19924;-81
2021/06/19 07:03:14;;;;;;;;;;;;;;;25.03;50.58;101500.44;5028925;28;19959;-77
2021/06/19 07:05:39;;;;;;;;;;;;;;;25.50;49.85;101495.84;5046668;28;19929;-80
2021/06/19 07:08:04;;;;;;;;;;;;;;;25.77;48.03;101501.38;5029331;28;19952;-82
2021/06/19 07:10:30;;;;;;;;;;;;;;;24.68;52.21;101510.31;5046062;28;19925;-83
2021/06/19 07:12:55;;;;;;;;;;;;;;;24.31;52.78;101502.78;5026463;28;19981;-81
2021/06/19 07:15:23;;;;;;;;;;;;;;;25.29;49.66;101506.19;5035100;28;19972;-79
2021/06/19 07:17:50;;;;;;;;;;;;;;;24.70;52.26;101504.63;5030495;28;19923;-82
2021/06/19 07:20:16;;;;;;;;;;;;;;;24.81;51.85;101506.34;5031346;28;19913;-83
2021/06/19 07:22:42;;;;;;;;;;;;;;;24.10;53.10;101515.88;5025643;28;20379;-84
2021/06/19 07:25:08;;;;;;;;;;;;;;;24.81;50.94;101521.06;5027910;28;19921;-80
2021/06/19 07:27:33;;;;;;;;;;;;;;;24.19;51.61;101528.84;5024170;28;19921;-82
2021/06/19 07:29:58;;;;;;;;;;;;;;;25.54;47.39;101523.09;5027118;28;19925;-82
2021/06/19 07:32:24;;;;;;;;;;;;;;;25.29;48.33;101527.44;5024703;28;19921;-82
2021/06/19 07:34:49;;;;;;;;;;;;;;;24.97;49.56;101541.69;5025871;28;19928;-81
2021/06/19 07:37:14;;;;;;;;;;;;;;;24.22;50.80;101542.38;5024716;28;20007;-84
2021/06/19 07:39:39;;;;;;;;;;;;;;;25.14;48.28;101552.00;5024811;28;19921;-82
2021/06/19 07:42:05;;;;;;;;;;;;;;;25.47;47.07;101547.78;5043102;28;20285;-79
2021/06/19 07:44:31;;;;;;;;;;;;;;;24.53;51.19;101558.78;5024977;28;19976;-80
2021/06/19 07:46:56;;;;;;;;;;;;;;;23.75;52.53;101569.75;5023854;28;19924;-84
2021/06/19 07:49:21;;;;;;;;;;;;;;;23.30;54.68;101569.19;5026146;28;19928;-83
2021/06/19 07:51:47;;;;;;;;;;;;;;;25.14;49.87;101579.69;5040049;28;19971;-82
2021/06/19 07:54:12;;;;;;;;;;;;;;;25.37;49.10;101569.13;5023309;28;19918;-83
2021/06/19 07:56:37;;;;;;;;;;;;;;;25.11;49.18;101567.00;5024375;28;19921;-82
2021/06/19 07:59:02;;;;;;;;;;;;;;;24.85;50.03;101569.56;5024737;28;19917;-80
2021/06/19 08:01:28;;;;;;;;;;;;;;;25.01;50.03;101573.59;5025703;28;19993;-82
2021/06/19 08:03:53;;;;;;;;;;;;;;;24.92;49.78;101584.53;5041149;28;20398;-83
2021/06/19 08:06:18;;;;;;;;;;;;;;;24.99;50.13;101579.28;5024210;28;19921;-82
2021/06/19 08:08:44;;;;;;;;;;;;;;;24.94;50.22;101576.06;5022692;28;19918;-83
2021/06/19 08:11:09;;;;;;;;;;;;;;;25.97;46.83;101587.19;5032853;28;19917;-84
2021/06/19 08:13:34;;;;;;;;;;;;;;;24.14;52.61;101591.97;5014343;28;19918;-82
2021/06/19 08:16:01;;;;;;;;;;;;;;;23.77;53.36;101603.66;5032056;28;20326;-80
2021/06/19 08:18:26;;;;;;;;;;;;;;;24.37;51.84;101604.50;5016630;28;19918;-83
2021/06/19 08:20:51;;;;;;;;;;;;;;;23.86;53.49;101608.38;5016012;28;19940;-81
2021/06/19 08:23:16;;;;;;;;;;;;;;;24.31;51.92;101604.22;5016914;28;19918;-83
2021/06/19 08:25:42;;;;;;;;;;;;;;;24.31;51.83;101610.63;5016577;28;19917;-84
2021/06/19 08:28:07;;;;;;;;;;;;;;;24.58;50.41;101606.31;5031917;28;20000;-82
2021/06/19 08:30:32;;;;;;;;;;;;;;;25.05;49.06;101614.66;5031578;28;19976;-79
2021/06/19 08:32:57;;;;;;;;;;;;;;;25.36;48.10;101617.22;5015742;28;19922;-82
2021/06/19 08:35:23;;;;;;;;;;;;;;;24.65;50.35;101621.28;5014708;28;19983;-83
2021/06/19 08:37:48;;;;;;;;;;;;;;;24.65;50.53;101621.28;5015890;28;19922;-81
2021/06/19 08:40:14;;;;;;;;;;;;;;;24.79;49.80;101613.53;5015654;28;19993;-82
2021/06/19 08:42:39;;;;;;;;;;;;;;;24.98;49.40;101605.22;5032117;28;19918;-80
2021/06/19 08:45:04;;;;;;;;;;;;;;;24.66;50.61;101613.88;5016621;28;20355;-82
2021/06/19 08:47:35;;;;;;;;;;;;;;;24.94;49.36;101606.53;5016860;28;20301;-83
2021/06/19 08:50:05;;;;;;;;;;;;;;;25.43;48.14;101593.44;5015445;28;20290;-82
2021/06/19 08:52:30;;;;;;;;;;;;;;;25.28;48.02;101597.69;5016323;28;19921;-81
2021/06/19 08:54:56;;;;;;;;;;;;;;;25.58;47.58;101590.19;5016794;28;20284;-86
2021/06/19 08:57:21;;;;;;;;;;;;;;;25.00;49.20;101607.81;5015916;28;19922;-84
2021/06/19 08:59:48;;;;;;;;;;;;;;;24.90;49.17;101594.03;5032563;28;19917;-87
2021/06/19 09:02:14;;;;;;;;;;;;;;;25.49;47.81;101591.97;5032072;28;19917;-83
2021/06/19 09:04:56;;;;;;;;;;;;;;;26.21;44.92;101594.03;5017035;28;19969;-82
2021/06/19 09:07:33;;;;;;;;;;;;;;;27.36;42.64;101572.78;5016407;28;19959;-82
2021/06/19 09:10:14;;;;;;;;;;;;;;;25.87;45.44;101587.22;5016456;28;19925;-86
2021/06/19 09:12:39;;;;;;;;;;;;;;;26.23;44.05;101592.00;5015735;28;19917;-82
2021/06/19 09:15:14;;;;;;;;;;;;;;;25.01;46.93;101596.59;5031137;28;20023;-81
2021/06/19 09:17:40;;;;;;;;;;;;;;;24.51;49.05;101594.03;5013874;28;20217;-82
2021/06/19 09:20:05;;;;;;;;;;;;;;;26.08;44.47;101581.44;5041654;28;19932;-83
2021/06/19 09:22:30;;;;;;;;;;;;;;;26.46;43.07;101590.47;5034984;28;19921;-81
2021/06/19 09:24:57;;;;;;;;;;;;;;;27.05;41.73;101592.69;5033495;28;19925;-85
2021/06/19 09:27:40;;;;;;;;;;;;;;;26.45;43.25;101588.75;5036030;28;19928;-82
2021/06/19 09:30:15;;;;;;;;;;;;;;;25.67;44.48;101586.47;5034144;28;20008;-84
2021/06/19 09:32:41;;;;;;;;;;;;;;;26.10;43.52;101596.00;5034176;28;20251;-83
2021/06/19 09:35:13;;;;;;;;;;;;;;;25.73;44.24;101591.41;5035155;28;19974;-83
2021/06/19 09:37:39;;;;;;;;;;;;;;;26.69;42.18;101587.22;5034593;28;19917;-82
2021/06/19 09:40:18;;;;;;;;;;;;;;;26.38;42.76;101595.94;5050015;28;19924;-83
2021/06/19 09:42:43;;;;;;;;;;;;;;;26.80;41.46;101583.31;5033168;28;19924;-80
2021/06/19 09:45:17;;;;;;;;;;;;;;;26.82;41.82;101586.81;5049240;28;19918;-82
2021/06/19 09:47:42;;;;;;;;;;;;;;;26.64;41.25;101587.66;5023819;28;19925;-82
2021/06/19 09:50:07;;;;;;;;;;;;;;;25.85;43.47;101600.38;5034238;28;19917;-83
2021/06/19 09:52:33;;;;;;;;;;;;;;;26.39;42.25;101614.34;5032697;28;20011;-81
2021/06/19 09:54:59;;;;;;;;;;;;;;;26.32;43.03;101604.91;5049205;28;19917;-82
2021/06/19 09:57:41;;;;;;;;;;;;;;;25.71;43.76;101621.19;5031722;28;19925;-81
2021/06/19 10:00:07;;;;;;;;;;;;;;;26.28;42.46;101618.19;4993673;28;20016;-81
2021/06/19 10:02:32;;;;;;;;;;;;;;;25.37;44.06;101623.66;4992837;28;20325;-81
2021/06/19 10:04:57;;;;;;;;;;;;;;;26.07;43.04;101621.25;4992873;28;20080;-80
2021/06/19 10:07:23;;;;;;;;;;;;;;;26.27;42.18;101618.34;5011564;28;19969;-84
2021/06/19 10:09:49;;;;;;;;;;;;;;;26.19;42.21;101613.59;5020145;28;20318;-81
2021/06/19 10:12:19;;;;;;;;;;;;;;;25.69;43.28;101614.91;5012444;28;20428;-81
2021/06/19 10:14:45;;;;;;;;;;;;;;;25.70;43.45;101618.56;5028223;28;19917;-82
2021/06/19 10:17:13;;;;;;;;;;;;;;;26.13;43.16;101609.56;5013154;28;19922;-80
2021/06/19 10:19:39;;;;;;;;;;;;;;;26.92;40.25;101603.34;5012250;28;20434;-80
2021/06/19 10:22:04;;;;;;;;;;;;;;;26.87;40.87;101606.63;5013598;28;19918;-83
2021/06/19 10:24:29;;;;;;;;;;;;;;;26.75;41.00;101607.91;5013137;28;19918;-81
2021/06/19 10:26:55;;;;;;;;;;;;;;;26.01;41.57;101605.25;5012065;28;20004;-81
2021/06/19 10:29:27;;;;;;;;;;;;;;;26.35;41.29;101596.25;5012039;28;19928;-82
2021/06/19 10:31:54;;;;;;;;;;;;;;;26.15;42.04;101610.28;5012064;28;20425;-82
2021/06/19 10:34:22;;;;;;;;;;;;;;;26.02;41.94;101601.47;5012210;28;19921;-81
2021/06/19 10:36:48;;;;;;;;;;;;;;;26.99;40.26;101605.31;5013346;28;19921;-83
2021/06/19 10:39:29;;;;;;;;;;;;;;;26.24;41.32;101610.34;5014567;28;19940;-83
2021/06/19 10:41:54;;;;;;;;;;;;;;;26.39;41.13;101606.03;5012781;28;19917;-82
2021/06/19 10:44:38;;;;;;;;;;;;;;;26.68;41.26;101607.69;5013878;28;20437;-81
2021/06/19 10:47:03;;;;;;;;;;;;;;;27.01;39.61;101610.72;5013240;28;20004;-82
2021/06/19 10:49:28;;;;;;;;;;;;;;;26.05;42.24;101608.59;5006169;28;20065;-82
2021/06/19 10:52:14;;;;;;;;;;;;;;;27.96;37.81;101615.41;4992983;28;19925;-81
2021/06/19 10:54:45;;;;;;;;;;;;;;;27.83;38.10;101610.34;4993112;28;19918;-82
2021/06/19 10:57:11;;;;;;;;;;;;;;;26.41;40.03;101614.19;4992800;28;19990;-81
2021/06/19 10:59:36;;;;;;;;;;;;;;;27.26;39.20;101610.88;4991743;28;19918;-81
2021/06/19 11:02:03;;;;;;;;;;;;;;;26.96;40.09;101611.19;4991428;28;19922;-83
2021/06/19 11:04:40;;;;;;;;;;;;;;;27.52;38.43;101606.22;4991671;28;19926;-83
2021/06/19 11:07:18;;;;;;;;;;;;;;;27.76;37.97;101596.22;5008273;28;19918;-82
2021/06/19 11:09:44;;;;;;;;;;;;;;;27.58;38.19;101600.00;4993157;28;19941;-81
2021/06/19 11:12:19;;;;;;;;;;;;;;;27.78;37.38;101599.72;4992061;28;19918;-80
2021/06/19 11:14:44;;;;;;;;;;;;;;;27.32;38.63;101585.22;5008091;28;19925;-81
2021/06/19 11:17:25;;;;;;;;;;;;;;;27.70;38.16;101596.88;4993127;28;19922;-81
2021/06/19 11:19:59;;;;;;;;;;;;;;;27.16;39.25;101591.53;5008133;28;20003;-81
2021/06/19 11:22:30;;;;;;;;;;;;;;;26.85;40.26;101584.56;4991654;28;19918;-83
2021/06/19 11:25:11;;;;;;;;;;;;;;;27.12;39.59;101584.59;4993006;28;20015;-81
2021/06/19 11:27:55;;;;;;;;;;;;;;;27.13;38.87;101576.09;4992755;28;20047;-81
2021/06/19 11:30:37;;;;;;;;;;;;;;;27.88;38.18;101585.66;5007953;28;20282;-81
2021/06/19 11:33:24;;;;;;;;;;;;;;;27.64;37.91;101590.09;4991894;28;19922;-82
2021/06/19 11:35:52;;;;;;;;;;;;;;;27.47;38.32;101583.59;4992974;28;19924;-84
2021/06/19 11:38:18;;;;;;;;;;;;;;;28.32;37.20;101582.66;4992901;28;20291;-81
2021/06/19 11:40:44;;;;;;;;;;;;;;;27.55;38.25;101580.88;4993321;28;19925;-81
2021/06/19 11:43:10;;;;;;;;;;;;;;;27.35;38.16;101591.34;4994343;28;19918;-83
2021/06/19 11:45:37;;;;;;;;;;;;;;;28.48;36.37;101584.59;4994432;28;19918;-83
2021/06/19 11:48:06;;;;;;;;;;;;;;;27.46;38.12;101587.41;4993958;28;19918;-84
2021/06/19 11:50:32;;;;;;;;;;;;;;;27.94;37.42;101576.63;4997331;28;20024;-81
2021/06/19 11:53:17;;;;;;;;;;;;;;;28.87;35.75;101580.25;4997751;28;19961;-82
2021/06/19 11:55:42;;;;;;;;;;;;;;;28.15;37.18;101576.19;4997411;28;19922;-82
2021/06/19 11:58:08;;;;;;;;;;;;;;;28.33;37.01;101586.31;4997278;28;19925;-81
2021/06/19 12:00:50;;;;;;;;;;;;;;;28.68;35.98;101573.13;4995625;28;19925;-85
2021/06/19 12:03:22;;;;;;;;;;;;;;;27.73;38.70;101577.09;4995944;28;19929;-84
2021/06/19 12:05:48;;;;;;;;;;;;;;;28.14;37.27;101570.81;4997291;28;19922;-82
2021/06/19 12:08:13;;;;;;;;;;;;;;;29.56;34.15;101561.13;4997021;28;20288;-82
2021/06/19 12:10:38;;;;;;;;;;;;;;;29.00;35.46;101555.50;5025243;28;19921;-82
2021/06/19 12:13:05;;;;;;;;;;;;;;;29.25;34.83;101563.84;5021099;28;19991;-84
2021/06/19 12:15:31;;;;;;;;;;;;;;;29.89;34.01;101555.38;5051962;28;19987;-85
2021/06/19 12:17:56;;;;;;;;;;;;;;;29.67;34.21;101563.50;5035740;28;20366;-84
2021/06/19 12:20:22;;;;;;;;;;;;;;;30.72;32.68;101573.28;5037958;28;20020;-85
2021/06/19 12:22:47;;;;;;;;;;;;;;;29.08;35.32;101572.22;5036590;28;19917;-84
2021/06/19 12:25:25;;;;;;;;;;;;;;;29.94;33.60;101563.19;5037358;28;20286;-83
2021/06/19 12:27:50;;;;;;;;;;;;;;;29.24;35.56;101562.09;5037197;28;20608;-84
2021/06/19 12:30:16;;;;;;;;;;;;;;;28.89;36.37;101567.88;5038230;28;19940;-84
2021/06/19 12:32:43;;;;;;;;;;;;;;;29.20;35.68;101575.50;5035730;28;19967;-82